sensor_id;sensor_type;location;lat;lon;timestamp;temperature;humidity
22795;DHT22;11564;50.920;11.612;2022-10-16T00:00:16;15.10;99.90
22795;DHT22;11564;50.920;11.612;2022-10-16T00:02:41;14.90;99.90
22795;DHT22;11564;50.920;11.612;2022-10-16T00:05:07;14.80;99.90
22795;DHT22;11564;50.920;11.612;2022-10-16T00:07:33;14.70;99.90
22795;DHT22;11564;50.920;11.612;2022-10-16T00:09:58;14.60;99.90
22795;DHT22;11564;50.920;11.612;2022-10-16T00:12:24;14.50;99.90
22795;DHT22;11564;50.920;11.612;2022-10-16T00:14:49;14.60;99.90
22795;DHT22;11564;50.920;11.612;2022-10-16T00:17:15;14.60;99.90
22795;DHT22;11564;50.920;11.612;2022-10-16T00:19:40;14.70;99.90
22795;DHT22;11564;50.920;11.612;2022-10-16T00:22:06;14.70;99.90
22795;DHT22;11564;50.920;11.612;2022-10-16T00:24:31;14.70;99.90
22795;DHT22;11564;50.920;11.612;2022-10-16T00:26:57;14.70;99.90
22795;DHT22;11564;50.920;11.612;2022-10-16T00:29:23;14.70;99.90
22795;DHT22;11564;50.920;11.612;2022-10-16T00:31:48;14.70;99.90
22795;DHT22;11564;50.920;11.612;2022-10-16T00:34:14;14.60;99.90
22795;DHT22;11564;50.920;11.612;2022-10-16T00:36:39;14.50;99.90
22795;DHT22;11564;50.920;11.612;2022-10-16T00:39:05;14.40;99.90
22795;DHT22;11564;50.920;11.612;2022-10-16T00:41:31;14.30;99.90
22795;DHT22;11564;50.920;11.612;2022-10-16T00:43:59;14.20;99.90
22795;DHT22;11564;50.920;11.612;2022-10-16T00:46:37;14.00;99.90
22795;DHT22;11564;50.920;11.612;2022-10-16T00:49:09;13.90;99.90
22795;DHT22;11564;50.920;11.612;2022-10-16T00:51:44;13.80;99.90
22795;DHT22;11564;50.920;11.612;2022-10-16T00:54:29;13.70;99.90
22795;DHT22;11564;50.920;11.612;2022-10-16T00:56:57;13.60;99.90
22795;DHT22;11564;50.920;11.612;2022-10-16T00:59:33;13.60;99.90
22795;DHT22;11564;50.920;11.612;2022-10-16T01:02:01;13.50;99.90
22795;DHT22;11564;50.920;11.612;2022-10-16T01:04:32;13.50;99.90
22795;DHT22;11564;50.920;11.612;2022-10-16T01:07:36;13.40;99.90
22795;DHT22;11564;50.920;11.612;2022-10-16T01:10:17;13.40;99.90
22795;DHT22;11564;50.920;11.612;2022-10-16T01:13:05;13.30;99.90
22795;DHT22;11564;50.920;11.612;2022-10-16T01:15:37;13.30;99.90
22795;DHT22;11564;50.920;11.612;2022-10-16T01:20:54;13.20;99.90
22795;DHT22;11564;50.920;11.612;2022-10-16T01:23:28;13.20;99.90
22795;DHT22;11564;50.920;11.612;2022-10-16T01:31:53;13.20;99.90
22795;DHT22;11564;50.920;11.612;2022-10-16T01:34:28;13.20;99.90
22795;DHT22;11564;50.920;11.612;2022-10-16T01:37:04;13.10;99.90
22795;DHT22;11564;50.920;11.612;2022-10-16T01:39:34;13.10;99.90
22795;DHT22;11564;50.920;11.612;2022-10-16T01:42:08;13.10;99.90
22795;DHT22;11564;50.920;11.612;2022-10-16T01:44:35;13.00;99.90
22795;DHT22;11564;50.920;11.612;2022-10-16T01:47:02;13.00;99.90
22795;DHT22;11564;50.920;11.612;2022-10-16T01:49:34;13.00;99.90
22795;DHT22;11564;50.920;11.612;2022-10-16T01:52:04;12.90;99.90
22795;DHT22;11564;50.920;11.612;2022-10-16T01:54:32;12.90;99.90
22795;DHT22;11564;50.920;11.612;2022-10-16T01:56:59;12.80;99.90
22795;DHT22;11564;50.920;11.612;2022-10-16T01:59:29;12.80;99.90
22795;DHT22;11564;50.920;11.612;2022-10-16T02:01:59;12.80;99.90
22795;DHT22;11564;50.920;11.612;2022-10-16T02:04:36;12.70;99.90
22795;DHT22;11564;50.920;11.612;2022-10-16T02:07:03;12.70;99.90
22795;DHT22;11564;50.920;11.612;2022-10-16T02:09:30;12.70;99.90
22795;DHT22;11564;50.920;11.612;2022-10-16T02:12:00;12.60;99.90
22795;DHT22;11564;50.920;11.612;2022-10-16T02:14:28;12.60;99.90
22795;DHT22;11564;50.920;11.612;2022-10-16T02:16:54;12.60;99.90
22795;DHT22;11564;50.920;11.612;2022-10-16T02:19:21;12.50;99.90
22795;DHT22;11564;50.920;11.612;2022-10-16T02:21:51;12.50;99.90
22795;DHT22;11564;50.920;11.612;2022-10-16T02:24:33;12.50;99.90
22795;DHT22;11564;50.920;11.612;2022-10-16T02:27:10;12.50;99.90
22795;DHT22;11564;50.920;11.612;2022-10-16T02:29:42;12.40;99.90
22795;DHT22;11564;50.920;11.612;2022-10-16T02:32:11;12.30;99.90
22795;DHT22;11564;50.920;11.612;2022-10-16T02:34:39;12.30;99.90
22795;DHT22;11564;50.920;11.612;2022-10-16T02:37:05;12.30;99.90
22795;DHT22;11564;50.920;11.612;2022-10-16T02:39:32;12.30;99.90
22795;DHT22;11564;50.920;11.612;2022-10-16T02:41:59;12.20;99.90
22795;DHT22;11564;50.920;11.612;2022-10-16T02:44:24;12.60;99.90
22795;DHT22;11564;50.920;11.612;2022-10-16T02:46:50;12.50;99.90
22795;DHT22;11564;50.920;11.612;2022-10-16T02:49:15;12.50;99.90
22795;DHT22;11564;50.920;11.612;2022-10-16T02:51:41;12.60;99.90
22795;DHT22;11564;50.920;11.612;2022-10-16T02:54:06;12.60;99.90
22795;DHT22;11564;50.920;11.612;2022-10-16T02:56:32;12.50;99.90
22795;DHT22;11564;50.920;11.612;2022-10-16T02:58:58;12.50;99.90
22795;DHT22;11564;50.920;11.612;2022-10-16T03:01:24;12.50;99.90
22795;DHT22;11564;50.920;11.612;2022-10-16T03:03:50;12.40;99.90
22795;DHT22;11564;50.920;11.612;2022-10-16T03:06:15;12.50;99.90
22795;DHT22;11564;50.920;11.612;2022-10-16T03:08:41;12.40;99.90
22795;DHT22;11564;50.920;11.612;2022-10-16T03:11:07;12.60;99.90
22795;DHT22;11564;50.920;11.612;2022-10-16T03:13:32;12.60;99.90
22795;DHT22;11564;50.920;11.612;2022-10-16T03:15:58;12.60;99.90
22795;DHT22;11564;50.920;11.612;2022-10-16T03:18:23;12.60;99.90
22795;DHT22;11564;50.920;11.612;2022-10-16T03:20:49;12.60;99.90
22795;DHT22;11564;50.920;11.612;2022-10-16T03:23:15;12.60;99.90
22795;DHT22;11564;50.920;11.612;2022-10-16T03:25:40;12.60;99.90
22795;DHT22;11564;50.920;11.612;2022-10-16T03:28:06;12.60;99.90
22795;DHT22;11564;50.920;11.612;2022-10-16T03:30:31;12.60;99.90
22795;DHT22;11564;50.920;11.612;2022-10-16T03:32:57;12.60;99.90
22795;DHT22;11564;50.920;11.612;2022-10-16T03:35:23;12.60;99.90
22795;DHT22;11564;50.920;11.612;2022-10-16T03:37:50;12.90;99.90
22795;DHT22;11564;50.920;11.612;2022-10-16T03:40:16;13.00;99.90
22795;DHT22;11564;50.920;11.612;2022-10-16T03:42:43;12.90;99.90
22795;DHT22;11564;50.920;11.612;2022-10-16T03:45:09;12.90;99.90
22795;DHT22;11564;50.920;11.612;2022-10-16T03:47:35;12.80;99.90
22795;DHT22;11564;50.920;11.612;2022-10-16T03:50:01;12.70;99.90
22795;DHT22;11564;50.920;11.612;2022-10-16T03:52:27;12.70;99.90
22795;DHT22;11564;50.920;11.612;2022-10-16T03:54:52;12.70;99.90
22795;DHT22;11564;50.920;11.612;2022-10-16T03:57:18;12.70;99.90
22795;DHT22;11564;50.920;11.612;2022-10-16T03:59:44;12.70;99.90
22795;DHT22;11564;50.920;11.612;2022-10-16T04:02:09;12.80;99.90
22795;DHT22;11564;50.920;11.612;2022-10-16T04:04:35;12.70;99.90
22795;DHT22;11564;50.920;11.612;2022-10-16T04:07:01;12.60;99.90
22795;DHT22;11564;50.920;11.612;2022-10-16T04:09:27;12.60;99.90
22795;DHT22;11564;50.920;11.612;2022-10-16T04:11:52;12.50;99.90
22795;DHT22;11564;50.920;11.612;2022-10-16T04:14:18;12.50;99.90
22795;DHT22;11564;50.920;11.612;2022-10-16T04:16:44;12.50;99.90
22795;DHT22;11564;50.920;11.612;2022-10-16T04:19:10;12.40;99.90
22795;DHT22;11564;50.920;11.612;2022-10-16T04:21:36;12.40;99.90
22795;DHT22;11564;50.920;11.612;2022-10-16T04:24:02;12.40;99.90
22795;DHT22;11564;50.920;11.612;2022-10-16T04:26:28;12.50;99.90
22795;DHT22;11564;50.920;11.612;2022-10-16T04:28:53;12.50;99.90
22795;DHT22;11564;50.920;11.612;2022-10-16T04:31:19;12.50;99.90
22795;DHT22;11564;50.920;11.612;2022-10-16T04:33:45;12.50;99.90
22795;DHT22;11564;50.920;11.612;2022-10-16T04:36:11;12.60;99.90
22795;DHT22;11564;50.920;11.612;2022-10-16T04:38:37;12.60;99.90
22795;DHT22;11564;50.920;11.612;2022-10-16T04:41:05;12.60;99.90
22795;DHT22;11564;50.920;11.612;2022-10-16T04:43:31;12.70;99.90
22795;DHT22;11564;50.920;11.612;2022-10-16T04:45:57;12.70;99.90
22795;DHT22;11564;50.920;11.612;2022-10-16T04:48:22;12.70;99.90
22795;DHT22;11564;50.920;11.612;2022-10-16T04:50:48;12.70;99.90
22795;DHT22;11564;50.920;11.612;2022-10-16T04:53:13;12.80;99.90
22795;DHT22;11564;50.920;11.612;2022-10-16T04:55:40;12.80;99.90
22795;DHT22;11564;50.920;11.612;2022-10-16T04:58:06;12.90;99.90
22795;DHT22;11564;50.920;11.612;2022-10-16T05:00:32;12.90;99.90
22795;DHT22;11564;50.920;11.612;2022-10-16T05:02:58;13.00;99.90
22795;DHT22;11564;50.920;11.612;2022-10-16T05:05:26;13.00;99.90
22795;DHT22;11564;50.920;11.612;2022-10-16T05:07:52;13.00;99.90
22795;DHT22;11564;50.920;11.612;2022-10-16T05:10:17;13.00;99.90
22795;DHT22;11564;50.920;11.612;2022-10-16T05:12:43;13.10;99.90
22795;DHT22;11564;50.920;11.612;2022-10-16T05:15:09;13.20;99.90
22795;DHT22;11564;50.920;11.612;2022-10-16T05:17:35;13.20;99.90
22795;DHT22;11564;50.920;11.612;2022-10-16T05:20:00;13.20;99.90
22795;DHT22;11564;50.920;11.612;2022-10-16T05:22:26;13.20;99.90
22795;DHT22;11564;50.920;11.612;2022-10-16T05:24:51;13.30;99.90
22795;DHT22;11564;50.920;11.612;2022-10-16T05:27:17;13.30;99.90
22795;DHT22;11564;50.920;11.612;2022-10-16T05:29:46;13.30;99.90
22795;DHT22;11564;50.920;11.612;2022-10-16T05:32:13;13.30;99.90
22795;DHT22;11564;50.920;11.612;2022-10-16T05:34:38;13.30;99.90
22795;DHT22;11564;50.920;11.612;2022-10-16T05:37:05;13.20;99.90
22795;DHT22;11564;50.920;11.612;2022-10-16T05:39:30;13.30;99.90
22795;DHT22;11564;50.920;11.612;2022-10-16T05:41:56;13.30;99.90
22795;DHT22;11564;50.920;11.612;2022-10-16T05:44:21;13.20;99.90
22795;DHT22;11564;50.920;11.612;2022-10-16T05:46:47;13.30;99.90
22795;DHT22;11564;50.920;11.612;2022-10-16T05:49:13;13.30;99.90
22795;DHT22;11564;50.920;11.612;2022-10-16T05:51:38;13.30;99.90
22795;DHT22;11564;50.920;11.612;2022-10-16T05:54:04;13.40;99.90
22795;DHT22;11564;50.920;11.612;2022-10-16T05:56:29;13.40;99.90
22795;DHT22;11564;50.920;11.612;2022-10-16T05:58:55;13.50;99.90
22795;DHT22;11564;50.920;11.612;2022-10-16T06:01:21;13.50;99.90
22795;DHT22;11564;50.920;11.612;2022-10-16T06:03:50;13.70;99.90
22795;DHT22;11564;50.920;11.612;2022-10-16T06:06:18;13.80;99.90
22795;DHT22;11564;50.920;11.612;2022-10-16T06:08:45;13.90;99.90
22795;DHT22;11564;50.920;11.612;2022-10-16T06:11:14;14.00;99.90
22795;DHT22;11564;50.920;11.612;2022-10-16T06:13:40;14.00;99.90
22795;DHT22;11564;50.920;11.612;2022-10-16T06:16:09;14.00;99.90
22795;DHT22;11564;50.920;11.612;2022-10-16T06:18:35;14.10;99.90
22795;DHT22;11564;50.920;11.612;2022-10-16T06:21:10;14.20;99.90
22795;DHT22;11564;50.920;11.612;2022-10-16T06:23:36;14.30;99.90
22795;DHT22;11564;50.920;11.612;2022-10-16T06:26:10;14.40;99.90
22795;DHT22;11564;50.920;11.612;2022-10-16T06:28:36;14.60;99.90
22795;DHT22;11564;50.920;11.612;2022-10-16T06:31:03;14.80;99.90
22795;DHT22;11564;50.920;11.612;2022-10-16T06:33:30;14.90;99.90
22795;DHT22;11564;50.920;11.612;2022-10-16T06:36:05;15.00;99.90
22795;DHT22;11564;50.920;11.612;2022-10-16T06:38:32;15.10;99.90
22795;DHT22;11564;50.920;11.612;2022-10-16T06:40:58;15.20;99.90
22795;DHT22;11564;50.920;11.612;2022-10-16T06:43:24;15.20;99.90
22795;DHT22;11564;50.920;11.612;2022-10-16T06:45:54;15.30;99.90
22795;DHT22;11564;50.920;11.612;2022-10-16T06:48:20;15.50;99.90
22795;DHT22;11564;50.920;11.612;2022-10-16T06:51:06;15.50;99.90
22795;DHT22;11564;50.920;11.612;2022-10-16T06:53:35;15.70;99.90
22795;DHT22;11564;50.920;11.612;2022-10-16T06:56:09;15.80;99.90
22795;DHT22;11564;50.920;11.612;2022-10-16T06:58:35;15.90;99.90
22795;DHT22;11564;50.920;11.612;2022-10-16T07:01:00;15.90;99.90
22795;DHT22;11564;50.920;11.612;2022-10-16T07:03:26;15.90;99.90
22795;DHT22;11564;50.920;11.612;2022-10-16T07:05:51;15.90;99.90
22795;DHT22;11564;50.920;11.612;2022-10-16T07:08:17;15.90;99.90
22795;DHT22;11564;50.920;11.612;2022-10-16T07:10:43;15.90;99.90
22795;DHT22;11564;50.920;11.612;2022-10-16T07:13:08;15.90;99.90
22795;DHT22;11564;50.920;11.612;2022-10-16T07:15:34;15.90;99.90
22795;DHT22;11564;50.920;11.612;2022-10-16T07:18:00;15.90;99.90
22795;DHT22;11564;50.920;11.612;2022-10-16T07:20:25;15.90;99.90
22795;DHT22;11564;50.920;11.612;2022-10-16T07:22:52;15.90;99.90
22795;DHT22;11564;50.920;11.612;2022-10-16T07:25:17;15.80;99.90
22795;DHT22;11564;50.920;11.612;2022-10-16T07:27:43;15.90;99.90
22795;DHT22;11564;50.920;11.612;2022-10-16T07:30:09;15.90;99.90
22795;DHT22;11564;50.920;11.612;2022-10-16T07:32:34;16.00;99.90
22795;DHT22;11564;50.920;11.612;2022-10-16T07:35:00;16.10;99.90
22795;DHT22;11564;50.920;11.612;2022-10-16T07:37:26;16.20;99.90
22795;DHT22;11564;50.920;11.612;2022-10-16T07:39:51;16.30;99.90
22795;DHT22;11564;50.920;11.612;2022-10-16T07:42:17;16.30;99.90
22795;DHT22;11564;50.920;11.612;2022-10-16T07:44:43;16.50;99.90
22795;DHT22;11564;50.920;11.612;2022-10-16T07:47:09;16.50;99.90
22795;DHT22;11564;50.920;11.612;2022-10-16T07:49:34;16.60;99.90
22795;DHT22;11564;50.920;11.612;2022-10-16T07:52:00;16.80;99.90
22795;DHT22;11564;50.920;11.612;2022-10-16T07:54:25;16.90;99.90
22795;DHT22;11564;50.920;11.612;2022-10-16T07:56:51;16.90;99.90
22795;DHT22;11564;50.920;11.612;2022-10-16T07:59:17;17.00;99.90
22795;DHT22;11564;50.920;11.612;2022-10-16T08:01:42;17.00;99.90
22795;DHT22;11564;50.920;11.612;2022-10-16T08:04:09;17.00;99.90
22795;DHT22;11564;50.920;11.612;2022-10-16T08:06:36;16.90;99.90
22795;DHT22;11564;50.920;11.612;2022-10-16T08:09:02;17.00;99.90
22795;DHT22;11564;50.920;11.612;2022-10-16T08:11:28;17.00;99.90
22795;DHT22;11564;50.920;11.612;2022-10-16T08:13:53;17.00;99.90
22795;DHT22;11564;50.920;11.612;2022-10-16T08:16:19;17.20;99.90
22795;DHT22;11564;50.920;11.612;2022-10-16T08:18:45;17.50;99.90
22795;DHT22;11564;50.920;11.612;2022-10-16T08:21:16;17.70;99.90
22795;DHT22;11564;50.920;11.612;2022-10-16T08:23:42;17.70;99.90
22795;DHT22;11564;50.920;11.612;2022-10-16T08:26:09;17.70;99.90
22795;DHT22;11564;50.920;11.612;2022-10-16T08:28:36;17.70;99.90
22795;DHT22;11564;50.920;11.612;2022-10-16T08:31:07;17.80;99.90
22795;DHT22;11564;50.920;11.612;2022-10-16T08:33:33;17.80;99.90
22795;DHT22;11564;50.920;11.612;2022-10-16T08:36:00;17.80;99.90
22795;DHT22;11564;50.920;11.612;2022-10-16T08:38:26;17.70;99.90
22795;DHT22;11564;50.920;11.612;2022-10-16T08:40:54;17.70;99.90
22795;DHT22;11564;50.920;11.612;2022-10-16T08:43:39;17.60;99.90
22795;DHT22;11564;50.920;11.612;2022-10-16T08:48:59;17.50;99.90
22795;DHT22;11564;50.920;11.612;2022-10-16T08:51:34;17.70;99.90
22795;DHT22;11564;50.920;11.612;2022-10-16T08:54:05;17.80;99.90
22795;DHT22;11564;50.920;11.612;2022-10-16T08:56:32;17.80;99.90
22795;DHT22;11564;50.920;11.612;2022-10-16T08:58:59;17.80;99.90
22795;DHT22;11564;50.920;11.612;2022-10-16T09:01:40;17.70;99.90
22795;DHT22;11564;50.920;11.612;2022-10-16T09:07:13;17.80;99.90
22795;DHT22;11564;50.920;11.612;2022-10-16T09:12:47;18.10;99.90
22795;DHT22;11564;50.920;11.612;2022-10-16T09:20:49;18.40;99.90
22795;DHT22;11564;50.920;11.612;2022-10-16T09:23:26;18.50;99.90
22795;DHT22;11564;50.920;11.612;2022-10-16T09:25:52;18.60;99.90
22795;DHT22;11564;50.920;11.612;2022-10-16T09:28:19;18.60;99.90
22795;DHT22;11564;50.920;11.612;2022-10-16T09:30:45;18.60;99.90
22795;DHT22;11564;50.920;11.612;2022-10-16T09:33:14;18.70;99.90
22795;DHT22;11564;50.920;11.612;2022-10-16T09:35:45;18.70;99.90
22795;DHT22;11564;50.920;11.612;2022-10-16T09:38:41;19.00;99.90
22795;DHT22;11564;50.920;11.612;2022-10-16T09:41:21;19.00;99.90
22795;DHT22;11564;50.920;11.612;2022-10-16T09:43:58;19.10;99.90
22795;DHT22;11564;50.920;11.612;2022-10-16T09:46:35;19.20;99.90
22795;DHT22;11564;50.920;11.612;2022-10-16T09:49:03;19.30;99.90
22795;DHT22;11564;50.920;11.612;2022-10-16T09:51:35;19.30;99.90
22795;DHT22;11564;50.920;11.612;2022-10-16T09:54:24;19.50;99.90
22795;DHT22;11564;50.920;11.612;2022-10-16T09:56:49;19.60;99.90
22795;DHT22;11564;50.920;11.612;2022-10-16T09:59:21;19.40;99.90
22795;DHT22;11564;50.920;11.612;2022-10-16T10:01:53;19.40;99.90
22795;DHT22;11564;50.920;11.612;2022-10-16T10:04:22;19.40;99.90
22795;DHT22;11564;50.920;11.612;2022-10-16T10:07:07;19.40;99.90
22795;DHT22;11564;50.920;11.612;2022-10-16T10:09:44;19.40;99.90
22795;DHT22;11564;50.920;11.612;2022-10-16T10:12:23;19.30;99.90
22795;DHT22;11564;50.920;11.612;2022-10-16T10:14:51;19.40;99.90
22795;DHT22;11564;50.920;11.612;2022-10-16T10:17:25;19.40;99.90
22795;DHT22;11564;50.920;11.612;2022-10-16T10:20:01;19.50;99.90
22795;DHT22;11564;50.920;11.612;2022-10-16T10:39:21;20.60;99.90
22795;DHT22;11564;50.920;11.612;2022-10-16T10:42:16;20.80;99.90
22795;DHT22;11564;50.920;11.612;2022-10-16T10:47:54;20.80;99.90
22795;DHT22;11564;50.920;11.612;2022-10-16T10:53:24;20.80;99.90
22795;DHT22;11564;50.920;11.612;2022-10-16T10:56:14;20.60;99.90
22795;DHT22;11564;50.920;11.612;2022-10-16T10:59:01;20.40;99.90
22795;DHT22;11564;50.920;11.612;2022-10-16T11:02:04;20.40;99.90
22795;DHT22;11564;50.920;11.612;2022-10-16T11:05:10;20.30;99.90
22795;DHT22;11564;50.920;11.612;2022-10-16T11:07:48;20.30;99.90
22795;DHT22;11564;50.920;11.612;2022-10-16T11:12:47;20.40;99.90
22795;DHT22;11564;50.920;11.612;2022-10-16T11:15:35;20.40;99.90
22795;DHT22;11564;50.920;11.612;2022-10-16T11:18:14;20.40;99.90
22795;DHT22;11564;50.920;11.612;2022-10-16T11:20:47;20.20;99.90
22795;DHT22;11564;50.920;11.612;2022-10-16T11:23:37;20.00;99.90
22795;DHT22;11564;50.920;11.612;2022-10-16T11:26:14;20.00;99.90
22795;DHT22;11564;50.920;11.612;2022-10-16T11:28:53;19.90;99.90
22795;DHT22;11564;50.920;11.612;2022-10-16T11:31:39;19.90;99.90
22795;DHT22;11564;50.920;11.612;2022-10-16T11:39:43;20.00;99.90
22795;DHT22;11564;50.920;11.612;2022-10-16T11:42:26;20.10;99.90
22795;DHT22;11564;50.920;11.612;2022-10-16T11:45:39;20.30;99.90
22795;DHT22;11564;50.920;11.612;2022-10-16T11:50:50;20.90;99.90
22795;DHT22;11564;50.920;11.612;2022-10-16T11:55:50;20.80;99.90
22795;DHT22;11564;50.920;11.612;2022-10-16T11:58:24;20.80;99.90
22795;DHT22;11564;50.920;11.612;2022-10-16T12:03:28;21.10;99.80
22795;DHT22;11564;50.920;11.612;2022-10-16T12:06:19;21.20;99.80
22795;DHT22;11564;50.920;11.612;2022-10-16T12:08:49;21.50;99.40
22795;DHT22;11564;50.920;11.612;2022-10-16T12:11:33;22.00;99.00
22795;DHT22;11564;50.920;11.612;2022-10-16T12:16:57;22.80;98.10
22795;DHT22;11564;50.920;11.612;2022-10-16T12:19:26;23.20;96.60
22795;DHT22;11564;50.920;11.612;2022-10-16T12:21:55;24.10;95.40
22795;DHT22;11564;50.920;11.612;2022-10-16T12:26:57;24.90;93.80
22795;DHT22;11564;50.920;11.612;2022-10-16T12:29:38;25.60;92.30
22795;DHT22;11564;50.920;11.612;2022-10-16T12:32:18;27.00;90.30
22795;DHT22;11564;50.920;11.612;2022-10-16T12:34:47;28.70;85.80
22795;DHT22;11564;50.920;11.612;2022-10-16T12:37:14;29.40;81.60
22795;DHT22;11564;50.920;11.612;2022-10-16T12:39:44;30.80;80.00
22795;DHT22;11564;50.920;11.612;2022-10-16T12:44:54;35.50;67.60
22795;DHT22;11564;50.920;11.612;2022-10-16T12:47:36;34.30;66.20
22795;DHT22;11564;50.920;11.612;2022-10-16T12:50:03;32.20;70.30
22795;DHT22;11564;50.920;11.612;2022-10-16T12:52:36;28.30;75.60
22795;DHT22;11564;50.920;11.612;2022-10-16T12:55:04;26.60;80.40
22795;DHT22;11564;50.920;11.612;2022-10-16T13:00:26;25.90;82.60
22795;DHT22;11564;50.920;11.612;2022-10-16T13:05:51;24.70;87.50
22795;DHT22;11564;50.920;11.612;2022-10-16T13:08:35;25.20;86.90
22795;DHT22;11564;50.920;11.612;2022-10-16T13:16:24;25.70;85.50
22795;DHT22;11564;50.920;11.612;2022-10-16T13:24:45;28.70;78.70
22795;DHT22;11564;50.920;11.612;2022-10-16T13:27:35;31.10;72.40
22795;DHT22;11564;50.920;11.612;2022-10-16T13:30:16;34.40;67.20
22795;DHT22;11564;50.920;11.612;2022-10-16T13:32:48;34.10;64.40
22795;DHT22;11564;50.920;11.612;2022-10-16T13:35:34;34.10;63.80
22795;DHT22;11564;50.920;11.612;2022-10-16T13:40:30;34.00;62.90
22795;DHT22;11564;50.920;11.612;2022-10-16T13:42:56;34.10;62.90
22795;DHT22;11564;50.920;11.612;2022-10-16T13:45:23;33.50;63.20
22795;DHT22;11564;50.920;11.612;2022-10-16T13:48:01;31.50;65.00
22795;DHT22;11564;50.920;11.612;2022-10-16T13:50:26;29.70;67.80
22795;DHT22;11564;50.920;11.612;2022-10-16T13:52:52;27.70;71.30
22795;DHT22;11564;50.920;11.612;2022-10-16T13:55:28;26.60;74.00
22795;DHT22;11564;50.920;11.612;2022-10-16T13:58:05;27.00;74.40
22795;DHT22;11564;50.920;11.612;2022-10-16T14:00:30;28.80;69.80
22795;DHT22;11564;50.920;11.612;2022-10-16T14:03:12;30.70;66.80
22795;DHT22;11564;50.920;11.612;2022-10-16T14:05:50;31.50;64.20
22795;DHT22;11564;50.920;11.612;2022-10-16T14:08:16;30.50;65.80
22795;DHT22;11564;50.920;11.612;2022-10-16T14:10:42;28.40;70.10
22795;DHT22;11564;50.920;11.612;2022-10-16T14:13:16;26.80;74.20
22795;DHT22;11564;50.920;11.612;2022-10-16T14:15:46;26.00;77.10
22795;DHT22;11564;50.920;11.612;2022-10-16T14:18:20;26.90;74.50
22795;DHT22;11564;50.920;11.612;2022-10-16T14:20:46;26.20;75.70
22795;DHT22;11564;50.920;11.612;2022-10-16T14:23:21;24.50;80.00
22795;DHT22;11564;50.920;11.612;2022-10-16T14:25:47;24.00;82.20
22795;DHT22;11564;50.920;11.612;2022-10-16T14:30:50;23.10;85.30
22795;DHT22;11564;50.920;11.612;2022-10-16T14:38:40;26.00;78.40
22795;DHT22;11564;50.920;11.612;2022-10-16T14:41:07;25.10;79.80
22795;DHT22;11564;50.920;11.612;2022-10-16T14:43:41;24.60;81.60
22795;DHT22;11564;50.920;11.612;2022-10-16T14:46:16;24.40;83.40
22795;DHT22;11564;50.920;11.612;2022-10-16T14:48:50;24.40;83.20
22795;DHT22;11564;50.920;11.612;2022-10-16T14:51:17;24.10;84.50
22795;DHT22;11564;50.920;11.612;2022-10-16T14:53:43;23.40;86.60
22795;DHT22;11564;50.920;11.612;2022-10-16T14:56:19;23.80;87.00
22795;DHT22;11564;50.920;11.612;2022-10-16T14:58:46;24.10;85.90
22795;DHT22;11564;50.920;11.612;2022-10-16T15:01:12;24.80;85.30
22795;DHT22;11564;50.920;11.612;2022-10-16T15:03:38;25.60;83.10
22795;DHT22;11564;50.920;11.612;2022-10-16T15:06:10;26.30;81.30
22795;DHT22;11564;50.920;11.612;2022-10-16T15:08:36;27.10;78.40
22795;DHT22;11564;50.920;11.612;2022-10-16T15:11:01;27.00;78.20
22795;DHT22;11564;50.920;11.612;2022-10-16T15:13:27;26.00;80.60
22795;DHT22;11564;50.920;11.612;2022-10-16T15:15:53;25.90;80.10
22795;DHT22;11564;50.920;11.612;2022-10-16T15:18:18;25.90;80.80
22795;DHT22;11564;50.920;11.612;2022-10-16T15:20:47;25.40;80.90
22795;DHT22;11564;50.920;11.612;2022-10-16T15:23:16;25.00;82.70
22795;DHT22;11564;50.920;11.612;2022-10-16T15:25:44;24.60;83.30
22795;DHT22;11564;50.920;11.612;2022-10-16T15:28:11;23.70;84.10
22795;DHT22;11564;50.920;11.612;2022-10-16T15:30:37;23.20;84.90
22795;DHT22;11564;50.920;11.612;2022-10-16T15:33:04;22.80;86.20
22795;DHT22;11564;50.920;11.612;2022-10-16T15:35:29;22.60;86.80
22795;DHT22;11564;50.920;11.612;2022-10-16T15:37:55;22.40;87.30
22795;DHT22;11564;50.920;11.612;2022-10-16T15:40:21;22.10;88.40
22795;DHT22;11564;50.920;11.612;2022-10-16T15:42:48;22.00;89.50
22795;DHT22;11564;50.920;11.612;2022-10-16T15:45:17;21.60;89.20
22795;DHT22;11564;50.920;11.612;2022-10-16T15:47:44;21.30;90.20
22795;DHT22;11564;50.920;11.612;2022-10-16T15:50:11;21.00;90.50
22795;DHT22;11564;50.920;11.612;2022-10-16T15:52:38;20.80;90.90
22795;DHT22;11564;50.920;11.612;2022-10-16T15:55:06;20.70;90.90
22795;DHT22;11564;50.920;11.612;2022-10-16T15:57:32;20.70;91.00
22795;DHT22;11564;50.920;11.612;2022-10-16T15:59:57;20.60;91.20
22795;DHT22;11564;50.920;11.612;2022-10-16T16:02:23;20.40;91.40
22795;DHT22;11564;50.920;11.612;2022-10-16T16:04:48;20.40;91.60
22795;DHT22;11564;50.920;11.612;2022-10-16T16:07:14;20.30;92.20
22795;DHT22;11564;50.920;11.612;2022-10-16T16:09:39;20.20;92.30
22795;DHT22;11564;50.920;11.612;2022-10-16T16:12:05;20.10;92.00
22795;DHT22;11564;50.920;11.612;2022-10-16T16:14:31;19.90;92.30
22795;DHT22;11564;50.920;11.612;2022-10-16T16:16:57;19.70;93.30
22795;DHT22;11564;50.920;11.612;2022-10-16T16:19:23;19.50;93.70
22795;DHT22;11564;50.920;11.612;2022-10-16T16:22:02;19.30;94.60
22795;DHT22;11564;50.920;11.612;2022-10-16T16:28:06;18.70;95.50
22795;DHT22;11564;50.920;11.612;2022-10-16T16:48:34;16.90;99.70
22795;DHT22;11564;50.920;11.612;2022-10-16T16:51:21;16.70;99.90
22795;DHT22;11564;50.920;11.612;2022-10-16T16:54:00;16.50;99.90
22795;DHT22;11564;50.920;11.612;2022-10-16T16:57:25;16.30;99.90
22795;DHT22;11564;50.920;11.612;2022-10-16T17:01:24;16.10;99.90
22795;DHT22;11564;50.920;11.612;2022-10-16T17:04:17;16.00;99.90
22795;DHT22;11564;50.920;11.612;2022-10-16T17:07:24;15.90;99.90
22795;DHT22;11564;50.920;11.612;2022-10-16T17:10:30;15.80;99.90
22795;DHT22;11564;50.920;11.612;2022-10-16T17:13:27;15.80;99.90
22795;DHT22;11564;50.920;11.612;2022-10-16T17:16:01;15.90;99.90
22795;DHT22;11564;50.920;11.612;2022-10-16T17:18:27;15.90;99.90
22795;DHT22;11564;50.920;11.612;2022-10-16T17:20:52;15.90;99.90
22795;DHT22;11564;50.920;11.612;2022-10-16T17:23:19;15.80;99.90
22795;DHT22;11564;50.920;11.612;2022-10-16T17:25:45;15.80;99.90
22795;DHT22;11564;50.920;11.612;2022-10-16T17:28:12;15.80;99.90
22795;DHT22;11564;50.920;11.612;2022-10-16T17:30:39;15.90;99.90
22795;DHT22;11564;50.920;11.612;2022-10-16T17:33:06;15.90;99.90